sensor_id;sensor_type;location;lat;lon;timestamp;P1;durP1;ratioP1;P2;durP2;ratioP2
68140;SDS011;54941;52.220;104.306;2022-12-10T00:01:20;29.52;;;13.10;;
68140;SDS011;54941;52.220;104.306;2022-12-10T00:03:47;32.63;;;13.32;;
68140;SDS011;54941;52.220;104.306;2022-12-10T00:06:14;27.85;;;10.50;;
68140;SDS011;54941;52.220;104.306;2022-12-10T00:08:41;31.65;;;10.48;;
68140;SDS011;54941;52.220;104.306;2022-12-10T00:11:08;28.15;;;12.80;;
68140;SDS011;54941;52.220;104.306;2022-12-10T00:13:37;28.58;;;11.27;;
68140;SDS011;54941;52.220;104.306;2022-12-10T00:16:08;25.08;;;12.10;;
68140;SDS011;54941;52.220;104.306;2022-12-10T00:18:35;32.20;;;12.52;;
68140;SDS011;54941;52.220;104.306;2022-12-10T00:21:02;32.20;;;12.80;;
68140;SDS011;54941;52.220;104.306;2022-12-10T00:23:29;40.50;;;12.93;;
68140;SDS011;54941;52.220;104.306;2022-12-10T00:26:01;34.08;;;13.27;;
68140;SDS011;54941;52.220;104.306;2022-12-10T00:28:28;30.55;;;13.88;;
68140;SDS011;54941;52.220;104.306;2022-12-10T00:30:54;30.63;;;12.70;;
68140;SDS011;54941;52.220;104.306;2022-12-10T00:33:22;36.42;;;14.07;;
68140;SDS011;54941;52.220;104.306;2022-12-10T00:35:49;36.72;;;14.80;;
68140;SDS011;54941;52.220;104.306;2022-12-10T00:38:15;37.53;;;16.25;;
68140;SDS011;54941;52.220;104.306;2022-12-10T00:40:41;43.42;;;16.25;;
68140;SDS011;54941;52.220;104.306;2022-12-10T00:43:08;39.90;;;16.02;;
68140;SDS011;54941;52.220;104.306;2022-12-10T00:45:34;42.67;;;15.63;;
68140;SDS011;54941;52.220;104.306;2022-12-10T00:48:01;40.28;;;15.75;;
68140;SDS011;54941;52.220;104.306;2022-12-10T00:50:29;43.08;;;16.73;;
68140;SDS011;54941;52.220;104.306;2022-12-10T00:52:55;35.15;;;12.52;;
68140;SDS011;54941;52.220;104.306;2022-12-10T00:55:21;37.20;;;16.80;;
68140;SDS011;54941;52.220;104.306;2022-12-10T00:57:48;44.33;;;16.70;;
68140;SDS011;54941;52.220;104.306;2022-12-10T01:00:14;40.45;;;15.32;;
68140;SDS011;54941;52.220;104.306;2022-12-10T01:02:41;38.63;;;15.75;;
68140;SDS011;54941;52.220;104.306;2022-12-10T01:05:07;38.33;;;14.13;;
68140;SDS011;54941;52.220;104.306;2022-12-10T01:07:35;30.15;;;13.65;;
68140;SDS011;54941;52.220;104.306;2022-12-10T01:10:02;32.28;;;14.45;;
68140;SDS011;54941;52.220;104.306;2022-12-10T01:12:29;32.53;;;13.45;;
68140;SDS011;54941;52.220;104.306;2022-12-10T01:14:56;36.50;;;15.10;;
68140;SDS011;54941;52.220;104.306;2022-12-10T01:17:22;50.88;;;19.42;;
68140;SDS011;54941;52.220;104.306;2022-12-10T01:19:48;78.05;;;27.35;;
68140;SDS011;54941;52.220;104.306;2022-12-10T01:22:15;72.72;;;30.20;;
68140;SDS011;54941;52.220;104.306;2022-12-10T01:24:43;53.67;;;20.17;;
68140;SDS011;54941;52.220;104.306;2022-12-10T01:27:09;47.33;;;18.02;;
68140;SDS011;54941;52.220;104.306;2022-12-10T01:29:35;53.90;;;22.80;;
68140;SDS011;54941;52.220;104.306;2022-12-10T01:32:02;45.22;;;17.23;;
68140;SDS011;54941;52.220;104.306;2022-12-10T01:34:29;41.85;;;17.08;;
68140;SDS011;54941;52.220;104.306;2022-12-10T01:36:55;47.65;;;16.70;;
68140;SDS011;54941;52.220;104.306;2022-12-10T01:39:22;43.58;;;16.65;;
68140;SDS011;54941;52.220;104.306;2022-12-10T01:41:51;42.95;;;16.90;;
68140;SDS011;54941;52.220;104.306;2022-12-10T01:47:21;50.83;;;20.73;;
68140;SDS011;54941;52.220;104.306;2022-12-10T01:49:48;52.85;;;20.73;;
68140;SDS011;54941;52.220;104.306;2022-12-10T01:52:14;51.35;;;21.52;;
68140;SDS011;54941;52.220;104.306;2022-12-10T01:54:41;48.47;;;21.25;;
68140;SDS011;54941;52.220;104.306;2022-12-10T01:57:11;46.42;;;19.35;;
68140;SDS011;54941;52.220;104.306;2022-12-10T01:59:40;55.22;;;20.65;;
68140;SDS011;54941;52.220;104.306;2022-12-10T02:02:10;54.80;;;21.20;;
68140;SDS011;54941;52.220;104.306;2022-12-10T02:04:42;40.00;;;17.08;;
68140;SDS011;54941;52.220;104.306;2022-12-10T02:07:16;53.55;;;21.52;;
68140;SDS011;54941;52.220;104.306;2022-12-10T02:09:50;49.60;;;19.65;;
68140;SDS011;54941;52.220;104.306;2022-12-10T02:12:25;46.00;;;18.10;;
68140;SDS011;54941;52.220;104.306;2022-12-10T02:15:00;41.75;;;17.95;;
68140;SDS011;54941;52.220;104.306;2022-12-10T02:17:34;44.28;;;17.35;;
68140;SDS011;54941;52.220;104.306;2022-12-10T02:20:05;57.60;;;24.17;;
68140;SDS011;54941;52.220;104.306;2022-12-10T02:22:37;56.80;;;21.05;;
68140;SDS011;54941;52.220;104.306;2022-12-10T02:25:07;69.93;;;25.85;;
68140;SDS011;54941;52.220;104.306;2022-12-10T02:27:42;69.03;;;24.77;;
68140;SDS011;54941;52.220;104.306;2022-12-10T02:30:18;51.33;;;22.15;;
68140;SDS011;54941;52.220;104.306;2022-12-10T02:32:45;59.28;;;23.55;;
68140;SDS011;54941;52.220;104.306;2022-12-10T02:37:45;52.90;;;21.00;;
68140;SDS011;54941;52.220;104.306;2022-12-10T02:40:16;55.42;;;23.25;;
68140;SDS011;54941;52.220;104.306;2022-12-10T02:42:46;49.88;;;21.42;;
68140;SDS011;54941;52.220;104.306;2022-12-10T02:45:15;43.25;;;19.80;;
68140;SDS011;54941;52.220;104.306;2022-12-10T02:47:45;69.53;;;26.65;;
68140;SDS011;54941;52.220;104.306;2022-12-10T02:50:13;69.80;;;27.10;;
68140;SDS011;54941;52.220;104.306;2022-12-10T02:52:44;64.43;;;22.40;;
68140;SDS011;54941;52.220;104.306;2022-12-10T02:55:11;45.00;;;18.52;;
68140;SDS011;54941;52.220;104.306;2022-12-10T02:57:40;61.20;;;25.83;;
68140;SDS011;54941;52.220;104.306;2022-12-10T03:00:18;71.50;;;26.50;;
68140;SDS011;54941;52.220;104.306;2022-12-10T03:02:51;74.88;;;28.80;;
68140;SDS011;54941;52.220;104.306;2022-12-10T03:05:40;65.70;;;27.00;;
68140;SDS011;54941;52.220;104.306;2022-12-10T03:08:13;70.45;;;29.98;;
68140;SDS011;54941;52.220;104.306;2022-12-10T03:10:43;71.65;;;30.23;;
68140;SDS011;54941;52.220;104.306;2022-12-10T03:13:15;74.65;;;30.95;;
68140;SDS011;54941;52.220;104.306;2022-12-10T03:15:48;79.93;;;33.88;;
68140;SDS011;54941;52.220;104.306;2022-12-10T03:18:19;63.05;;;26.33;;
68140;SDS011;54941;52.220;104.306;2022-12-10T03:20:50;65.13;;;28.90;;
68140;SDS011;54941;52.220;104.306;2022-12-10T03:23:19;69.93;;;30.88;;
68140;SDS011;54941;52.220;104.306;2022-12-10T03:25:46;71.75;;;30.27;;
68140;SDS011;54941;52.220;104.306;2022-12-10T03:28:14;62.03;;;27.40;;
68140;SDS011;54941;52.220;104.306;2022-12-10T03:30:43;73.82;;;31.15;;
68140;SDS011;54941;52.220;104.306;2022-12-10T03:33:13;77.75;;;34.55;;
68140;SDS011;54941;52.220;104.306;2022-12-10T03:35:41;70.88;;;32.28;;
68140;SDS011;54941;52.220;104.306;2022-12-10T03:38:07;74.43;;;33.63;;
68140;SDS011;54941;52.220;104.306;2022-12-10T03:40:35;65.22;;;28.30;;
68140;SDS011;54941;52.220;104.306;2022-12-10T03:43:02;70.47;;;32.72;;
68140;SDS011;54941;52.220;104.306;2022-12-10T03:45:31;61.10;;;27.88;;
68140;SDS011;54941;52.220;104.306;2022-12-10T03:48:00;68.70;;;29.05;;
68140;SDS011;54941;52.220;104.306;2022-12-10T03:50:27;68.03;;;32.13;;
68140;SDS011;54941;52.220;104.306;2022-12-10T03:52:54;70.90;;;32.42;;
68140;SDS011;54941;52.220;104.306;2022-12-10T03:55:22;69.07;;;31.70;;
68140;SDS011;54941;52.220;104.306;2022-12-10T03:57:49;64.03;;;31.40;;
68140;SDS011;54941;52.220;104.306;2022-12-10T04:00:15;60.75;;;27.50;;
68140;SDS011;54941;52.220;104.306;2022-12-10T04:02:42;54.13;;;26.27;;
68140;SDS011;54941;52.220;104.306;2022-12-10T04:05:08;65.45;;;32.95;;
68140;SDS011;54941;52.220;104.306;2022-12-10T04:07:36;70.97;;;28.08;;
68140;SDS011;54941;52.220;104.306;2022-12-10T04:10:03;66.22;;;27.85;;
68140;SDS011;54941;52.220;104.306;2022-12-10T04:12:30;66.03;;;30.83;;
68140;SDS011;54941;52.220;104.306;2022-12-10T04:14:56;63.67;;;29.48;;
68140;SDS011;54941;52.220;104.306;2022-12-10T04:17:23;64.55;;;29.15;;
68140;SDS011;54941;52.220;104.306;2022-12-10T04:19:49;65.45;;;29.73;;
68140;SDS011;54941;52.220;104.306;2022-12-10T04:22:16;69.00;;;31.20;;
68140;SDS011;54941;52.220;104.306;2022-12-10T04:24:43;87.38;;;36.42;;
68140;SDS011;54941;52.220;104.306;2022-12-10T04:27:10;76.45;;;31.13;;
68140;SDS011;54941;52.220;104.306;2022-12-10T04:29:42;83.18;;;36.85;;
68140;SDS011;54941;52.220;104.306;2022-12-10T04:32:08;91.75;;;38.60;;
68140;SDS011;54941;52.220;104.306;2022-12-10T04:34:35;86.18;;;37.25;;
68140;SDS011;54941;52.220;104.306;2022-12-10T04:37:02;96.50;;;37.97;;
68140;SDS011;54941;52.220;104.306;2022-12-10T04:39:29;100.15;;;40.05;;
68140;SDS011;54941;52.220;104.306;2022-12-10T04:41:57;68.07;;;27.38;;
68140;SDS011;54941;52.220;104.306;2022-12-10T04:44:25;88.05;;;38.10;;
68140;SDS011;54941;52.220;104.306;2022-12-10T04:46:52;91.22;;;39.67;;
68140;SDS011;54941;52.220;104.306;2022-12-10T04:49:18;97.35;;;43.20;;
68140;SDS011;54941;52.220;104.306;2022-12-10T04:51:44;90.10;;;38.83;;
68140;SDS011;54941;52.220;104.306;2022-12-10T04:54:11;94.10;;;37.17;;
68140;SDS011;54941;52.220;104.306;2022-12-10T04:56:38;84.57;;;34.22;;
68140;SDS011;54941;52.220;104.306;2022-12-10T04:59:06;50.42;;;21.85;;
68140;SDS011;54941;52.220;104.306;2022-12-10T05:01:33;44.45;;;19.55;;
68140;SDS011;54941;52.220;104.306;2022-12-10T05:04:01;48.60;;;21.80;;
68140;SDS011;54941;52.220;104.306;2022-12-10T05:06:28;42.35;;;19.60;;
68140;SDS011;54941;52.220;104.306;2022-12-10T05:08:55;53.55;;;23.08;;
68140;SDS011;54941;52.220;104.306;2022-12-10T05:11:23;55.42;;;22.45;;
68140;SDS011;54941;52.220;104.306;2022-12-10T05:13:50;51.50;;;21.80;;
68140;SDS011;54941;52.220;104.306;2022-12-10T05:16:20;52.03;;;23.10;;
68140;SDS011;54941;52.220;104.306;2022-12-10T05:18:47;39.95;;;18.95;;
68140;SDS011;54941;52.220;104.306;2022-12-10T05:21:15;53.38;;;22.65;;
68140;SDS011;54941;52.220;104.306;2022-12-10T05:23:44;47.03;;;18.58;;
68140;SDS011;54941;52.220;104.306;2022-12-10T05:26:13;51.35;;;22.95;;
68140;SDS011;54941;52.220;104.306;2022-12-10T05:28:41;52.42;;;21.95;;
68140;SDS011;54941;52.220;104.306;2022-12-10T05:31:11;42.90;;;17.23;;
68140;SDS011;54941;52.220;104.306;2022-12-10T05:33:39;66.93;;;26.10;;
68140;SDS011;54941;52.220;104.306;2022-12-10T05:36:06;51.72;;;24.30;;
68140;SDS011;54941;52.220;104.306;2022-12-10T05:38:34;61.88;;;25.13;;
68140;SDS011;54941;52.220;104.306;2022-12-10T05:41:01;40.30;;;18.08;;
68140;SDS011;54941;52.220;104.306;2022-12-10T05:43:28;56.28;;;24.55;;
68140;SDS011;54941;52.220;104.306;2022-12-10T05:45:57;79.35;;;32.30;;
68140;SDS011;54941;52.220;104.306;2022-12-10T05:48:25;74.88;;;31.83;;
68140;SDS011;54941;52.220;104.306;2022-12-10T05:50:53;73.57;;;31.65;;
68140;SDS011;54941;52.220;104.306;2022-12-10T05:53:19;57.50;;;25.40;;
68140;SDS011;54941;52.220;104.306;2022-12-10T05:55:46;60.80;;;28.73;;
68140;SDS011;54941;52.220;104.306;2022-12-10T05:58:12;54.55;;;24.88;;
68140;SDS011;54941;52.220;104.306;2022-12-10T06:00:39;63.22;;;27.27;;
68140;SDS011;54941;52.220;104.306;2022-12-10T06:03:06;63.42;;;27.67;;
68140;SDS011;54941;52.220;104.306;2022-12-10T06:05:35;74.43;;;32.65;;
68140;SDS011;54941;52.220;104.306;2022-12-10T06:10:29;58.92;;;25.60;;
68140;SDS011;54941;52.220;104.306;2022-12-10T06:12:56;57.00;;;25.75;;
68140;SDS011;54941;52.220;104.306;2022-12-10T06:15:22;47.22;;;23.08;;
68140;SDS011;54941;52.220;104.306;2022-12-10T06:17:49;51.85;;;21.50;;
68140;SDS011;54941;52.220;104.306;2022-12-10T06:20:15;50.50;;;21.92;;
68140;SDS011;54941;52.220;104.306;2022-12-10T06:22:41;62.55;;;25.95;;
68140;SDS011;54941;52.220;104.306;2022-12-10T06:25:09;63.97;;;24.45;;
68140;SDS011;54941;52.220;104.306;2022-12-10T06:27:36;71.88;;;31.55;;
68140;SDS011;54941;52.220;104.306;2022-12-10T06:30:02;77.97;;;32.35;;
68140;SDS011;54941;52.220;104.306;2022-12-10T06:32:29;68.75;;;28.52;;
68140;SDS011;54941;52.220;104.306;2022-12-10T06:34:56;71.90;;;31.42;;
68140;SDS011;54941;52.220;104.306;2022-12-10T06:37:22;58.33;;;26.85;;
68140;SDS011;54941;52.220;104.306;2022-12-10T06:39:49;59.88;;;27.70;;
68140;SDS011;54941;52.220;104.306;2022-12-10T06:42:18;68.15;;;29.00;;
68140;SDS011;54941;52.220;104.306;2022-12-10T06:44:44;67.88;;;29.20;;
68140;SDS011;54941;52.220;104.306;2022-12-10T06:47:11;70.38;;;28.10;;
68140;SDS011;54941;52.220;104.306;2022-12-10T06:49:37;60.75;;;26.85;;
68140;SDS011;54941;52.220;104.306;2022-12-10T06:52:03;63.30;;;26.00;;
68140;SDS011;54941;52.220;104.306;2022-12-10T06:54:30;70.60;;;28.42;;
68140;SDS011;54941;52.220;104.306;2022-12-10T06:56:57;68.40;;;28.08;;
68140;SDS011;54941;52.220;104.306;2022-12-10T06:59:25;66.43;;;29.05;;
68140;SDS011;54941;52.220;104.306;2022-12-10T07:01:51;57.97;;;23.33;;
68140;SDS011;54941;52.220;104.306;2022-12-10T07:04:17;70.25;;;27.92;;
68140;SDS011;54941;52.220;104.306;2022-12-10T07:06:44;65.43;;;27.75;;
68140;SDS011;54941;52.220;104.306;2022-12-10T07:09:10;76.85;;;30.38;;
68140;SDS011;54941;52.220;104.306;2022-12-10T07:11:37;60.50;;;26.30;;
68140;SDS011;54941;52.220;104.306;2022-12-10T07:14:03;75.88;;;28.85;;
68140;SDS011;54941;52.220;104.306;2022-12-10T07:16:31;62.97;;;27.42;;
68140;SDS011;54941;52.220;104.306;2022-12-10T07:18:59;55.13;;;23.75;;
68140;SDS011;54941;52.220;104.306;2022-12-10T07:21:27;57.05;;;23.35;;
68140;SDS011;54941;52.220;104.306;2022-12-10T07:23:54;66.93;;;27.58;;
68140;SDS011;54941;52.220;104.306;2022-12-10T07:26:22;82.10;;;32.97;;
68140;SDS011;54941;52.220;104.306;2022-12-10T07:28:49;79.82;;;28.13;;
68140;SDS011;54941;52.220;104.306;2022-12-10T07:31:15;110.65;;;48.17;;
68140;SDS011;54941;52.220;104.306;2022-12-10T07:33:43;48.20;;;23.52;;
68140;SDS011;54941;52.220;104.306;2022-12-10T07:36:10;69.60;;;31.88;;
68140;SDS011;54941;52.220;104.306;2022-12-10T07:38:38;45.45;;;23.20;;
68140;SDS011;54941;52.220;104.306;2022-12-10T07:41:04;61.20;;;26.23;;
68140;SDS011;54941;52.220;104.306;2022-12-10T07:43:32;67.75;;;26.80;;
68140;SDS011;54941;52.220;104.306;2022-12-10T07:46:02;63.90;;;26.10;;
68140;SDS011;54941;52.220;104.306;2022-12-10T07:48:29;61.30;;;26.80;;
68140;SDS011;54941;52.220;104.306;2022-12-10T07:50:57;56.83;;;27.48;;
68140;SDS011;54941;52.220;104.306;2022-12-10T07:53:24;71.15;;;27.65;;
68140;SDS011;54941;52.220;104.306;2022-12-10T07:55:50;59.08;;;26.02;;
68140;SDS011;54941;52.220;104.306;2022-12-10T07:58:17;59.33;;;26.98;;
68140;SDS011;54941;52.220;104.306;2022-12-10T08:00:43;65.03;;;26.42;;
68140;SDS011;54941;52.220;104.306;2022-12-10T08:03:09;63.85;;;27.92;;
68140;SDS011;54941;52.220;104.306;2022-12-10T08:05:36;36.97;;;17.75;;
68140;SDS011;54941;52.220;104.306;2022-12-10T08:08:04;56.75;;;25.13;;
68140;SDS011;54941;52.220;104.306;2022-12-10T08:10:33;59.72;;;26.35;;
68140;SDS011;54941;52.220;104.306;2022-12-10T08:12:59;65.80;;;28.75;;
68140;SDS011;54941;52.220;104.306;2022-12-10T08:15:25;58.80;;;24.95;;
68140;SDS011;54941;52.220;104.306;2022-12-10T08:17:52;59.20;;;23.90;;
68140;SDS011;54941;52.220;104.306;2022-12-10T08:20:18;62.50;;;26.52;;
68140;SDS011;54941;52.220;104.306;2022-12-10T08:22:45;51.10;;;22.55;;
68140;SDS011;54941;52.220;104.306;2022-12-10T08:25:13;55.88;;;23.50;;
68140;SDS011;54941;52.220;104.306;2022-12-10T08:27:39;70.25;;;29.90;;
68140;SDS011;54941;52.220;104.306;2022-12-10T08:30:06;58.25;;;27.55;;
68140;SDS011;54941;52.220;104.306;2022-12-10T08:32:33;58.50;;;26.13;;
68140;SDS011;54941;52.220;104.306;2022-12-10T08:35:00;68.68;;;28.30;;
68140;SDS011;54941;52.220;104.306;2022-12-10T08:37:26;59.67;;;26.92;;
68140;SDS011;54941;52.220;104.306;2022-12-10T08:39:53;68.07;;;26.92;;
68140;SDS011;54941;52.220;104.306;2022-12-10T08:42:20;61.15;;;25.85;;
68140;SDS011;54941;52.220;104.306;2022-12-10T08:44:47;52.90;;;22.52;;
68140;SDS011;54941;52.220;104.306;2022-12-10T08:47:13;63.75;;;24.58;;
68140;SDS011;54941;52.220;104.306;2022-12-10T08:49:40;49.95;;;20.20;;
68140;SDS011;54941;52.220;104.306;2022-12-10T08:52:06;65.50;;;27.80;;
68140;SDS011;54941;52.220;104.306;2022-12-10T08:54:32;69.70;;;28.15;;
68140;SDS011;54941;52.220;104.306;2022-12-10T08:56:59;66.88;;;27.75;;
68140;SDS011;54941;52.220;104.306;2022-12-10T08:59:27;67.65;;;25.77;;
68140;SDS011;54941;52.220;104.306;2022-12-10T09:01:53;62.13;;;26.40;;
68140;SDS011;54941;52.220;104.306;2022-12-10T09:04:19;73.55;;;28.35;;
68140;SDS011;54941;52.220;104.306;2022-12-10T09:06:46;64.55;;;26.58;;
68140;SDS011;54941;52.220;104.306;2022-12-10T09:09:12;65.35;;;26.40;;
68140;SDS011;54941;52.220;104.306;2022-12-10T09:11:38;65.68;;;27.13;;
68140;SDS011;54941;52.220;104.306;2022-12-10T09:14:05;64.32;;;25.27;;
68140;SDS011;54941;52.220;104.306;2022-12-10T09:16:33;56.15;;;25.05;;
68140;SDS011;54941;52.220;104.306;2022-12-10T09:19:01;63.60;;;24.77;;
68140;SDS011;54941;52.220;104.306;2022-12-10T09:21:29;68.60;;;25.38;;
68140;SDS011;54941;52.220;104.306;2022-12-10T09:23:55;55.38;;;25.40;;
68140;SDS011;54941;52.220;104.306;2022-12-10T09:26:22;68.22;;;25.67;;
68140;SDS011;54941;52.220;104.306;2022-12-10T09:28:49;58.30;;;24.00;;
68140;SDS011;54941;52.220;104.306;2022-12-10T09:31:16;64.97;;;27.02;;
68140;SDS011;54941;52.220;104.306;2022-12-10T09:33:45;57.92;;;24.42;;
68140;SDS011;54941;52.220;104.306;2022-12-10T09:36:13;65.72;;;24.98;;
68140;SDS011;54941;52.220;104.306;2022-12-10T09:38:40;67.55;;;27.25;;
68140;SDS011;54941;52.220;104.306;2022-12-10T09:41:13;63.90;;;25.35;;
68140;SDS011;54941;52.220;104.306;2022-12-10T09:43:50;55.55;;;24.60;;
68140;SDS011;54941;52.220;104.306;2022-12-10T09:46:22;49.63;;;21.80;;
68140;SDS011;54941;52.220;104.306;2022-12-10T09:48:59;55.28;;;21.23;;
68140;SDS011;54941;52.220;104.306;2022-12-10T09:51:34;58.33;;;23.73;;
68140;SDS011;54941;52.220;104.306;2022-12-10T09:54:03;62.22;;;24.63;;
68140;SDS011;54941;52.220;104.306;2022-12-10T09:56:37;60.25;;;24.77;;
68140;SDS011;54941;52.220;104.306;2022-12-10T09:59:06;63.38;;;26.27;;
68140;SDS011;54941;52.220;104.306;2022-12-10T10:01:41;60.78;;;24.67;;
68140;SDS011;54941;52.220;104.306;2022-12-10T10:04:11;74.78;;;27.50;;
68140;SDS011;54941;52.220;104.306;2022-12-10T10:06:37;63.63;;;25.35;;
68140;SDS011;54941;52.220;104.306;2022-12-10T10:09:05;56.17;;;22.80;;
68140;SDS011;54941;52.220;104.306;2022-12-10T10:11:35;57.28;;;23.10;;
68140;SDS011;54941;52.220;104.306;2022-12-10T10:14:03;59.78;;;23.65;;
68140;SDS011;54941;52.220;104.306;2022-12-10T10:16:35;55.08;;;21.73;;
68140;SDS011;54941;52.220;104.306;2022-12-10T10:21:34;49.38;;;20.40;;
68140;SDS011;54941;52.220;104.306;2022-12-10T10:24:04;62.63;;;23.15;;
68140;SDS011;54941;52.220;104.306;2022-12-10T10:26:32;45.47;;;18.35;;
68140;SDS011;54941;52.220;104.306;2022-12-10T10:28:59;40.80;;;17.30;;
68140;SDS011;54941;52.220;104.306;2022-12-10T10:31:29;50.38;;;19.80;;
68140;SDS011;54941;52.220;104.306;2022-12-10T10:33:58;41.58;;;18.83;;
68140;SDS011;54941;52.220;104.306;2022-12-10T10:36:27;49.03;;;18.63;;
68140;SDS011;54941;52.220;104.306;2022-12-10T10:38:56;36.25;;;15.35;;
68140;SDS011;54941;52.220;104.306;2022-12-10T10:41:34;48.80;;;18.35;;
68140;SDS011;54941;52.220;104.306;2022-12-10T10:44:02;48.67;;;20.63;;
68140;SDS011;54941;52.220;104.306;2022-12-10T10:46:28;39.38;;;17.80;;
68140;SDS011;54941;52.220;104.306;2022-12-10T10:49:12;47.85;;;19.80;;
68140;SDS011;54941;52.220;104.306;2022-12-10T10:51:44;44.58;;;18.05;;
68140;SDS011;54941;52.220;104.306;2022-12-10T10:54:12;41.63;;;17.42;;
68140;SDS011;54941;52.220;104.306;2022-12-10T10:56:58;46.65;;;17.73;;
68140;SDS011;54941;52.220;104.306;2022-12-10T10:59:29;45.53;;;17.98;;
68140;SDS011;54941;52.220;104.306;2022-12-10T11:01:59;43.17;;;19.52;;
68140;SDS011;54941;52.220;104.306;2022-12-10T11:04:30;40.75;;;18.65;;
68140;SDS011;54941;52.220;104.306;2022-12-10T11:07:03;44.95;;;17.90;;
68140;SDS011;54941;52.220;104.306;2022-12-10T11:09:33;43.22;;;16.42;;
68140;SDS011;54941;52.220;104.306;2022-12-10T11:12:02;44.78;;;16.50;;
68140;SDS011;54941;52.220;104.306;2022-12-10T11:14:30;49.10;;;19.02;;
68140;SDS011;54941;52.220;104.306;2022-12-10T11:17:02;39.63;;;15.20;;
68140;SDS011;54941;52.220;104.306;2022-12-10T11:19:43;37.67;;;17.00;;
68140;SDS011;54941;52.220;104.306;2022-12-10T11:22:19;39.40;;;16.58;;
68140;SDS011;54941;52.220;104.306;2022-12-10T11:24:49;41.60;;;17.15;;
68140;SDS011;54941;52.220;104.306;2022-12-10T11:27:17;37.17;;;17.13;;
68140;SDS011;54941;52.220;104.306;2022-12-10T11:30:09;33.72;;;14.23;;
68140;SDS011;54941;52.220;104.306;2022-12-10T11:32:41;31.08;;;14.02;;
68140;SDS011;54941;52.220;104.306;2022-12-10T11:35:23;36.13;;;14.50;;
68140;SDS011;54941;52.220;104.306;2022-12-10T11:38:01;33.63;;;15.23;;
68140;SDS011;54941;52.220;104.306;2022-12-10T11:40:40;37.35;;;16.63;;
68140;SDS011;54941;52.220;104.306;2022-12-10T11:43:25;41.45;;;17.60;;
68140;SDS011;54941;52.220;104.306;2022-12-10T11:48:44;45.55;;;16.58;;
68140;SDS011;54941;52.220;104.306;2022-12-10T11:51:26;41.55;;;16.40;;
68140;SDS011;54941;52.220;104.306;2022-12-10T11:54:03;43.40;;;15.85;;
68140;SDS011;54941;52.220;104.306;2022-12-10T11:56:55;37.53;;;14.13;;
68140;SDS011;54941;52.220;104.306;2022-12-10T11:59:28;29.02;;;10.63;;
68140;SDS011;54941;52.220;104.306;2022-12-10T12:02:15;32.60;;;13.38;;
68140;SDS011;54941;52.220;104.306;2022-12-10T12:05:03;27.05;;;11.05;;
68140;SDS011;54941;52.220;104.306;2022-12-10T12:07:44;31.67;;;12.98;;
68140;SDS011;54941;52.220;104.306;2022-12-10T12:10:27;30.52;;;13.88;;
68140;SDS011;54941;52.220;104.306;2022-12-10T12:13:08;35.67;;;15.15;;
68140;SDS011;54941;52.220;104.306;2022-12-10T12:15:38;33.25;;;12.77;;
68140;SDS011;54941;52.220;104.306;2022-12-10T12:18:10;41.10;;;19.17;;
68140;SDS011;54941;52.220;104.306;2022-12-10T12:20:43;37.28;;;14.65;;
68140;SDS011;54941;52.220;104.306;2022-12-10T12:23:14;34.95;;;13.13;;
68140;SDS011;54941;52.220;104.306;2022-12-10T12:25:48;23.45;;;9.60;;
68140;SDS011;54941;52.220;104.306;2022-12-10T12:28:21;37.25;;;14.45;;
68140;SDS011;54941;52.220;104.306;2022-12-10T12:30:53;31.80;;;12.43;;
68140;SDS011;54941;52.220;104.306;2022-12-10T12:33:26;37.47;;;14.73;;
68140;SDS011;54941;52.220;104.306;2022-12-10T12:35:58;33.90;;;12.45;;
68140;SDS011;54941;52.220;104.306;2022-12-10T12:38:30;29.90;;;11.98;;
68140;SDS011;54941;52.220;104.306;2022-12-10T12:41:02;32.97;;;12.82;;
68140;SDS011;54941;52.220;104.306;2022-12-10T12:43:40;26.27;;;12.63;;
68140;SDS011;54941;52.220;104.306;2022-12-10T12:46:16;35.15;;;13.05;;
68140;SDS011;54941;52.220;104.306;2022-12-10T12:48:48;30.00;;;12.32;;
68140;SDS011;54941;52.220;104.306;2022-12-10T12:51:22;35.75;;;13.88;;
68140;SDS011;54941;52.220;104.306;2022-12-10T12:53:52;26.55;;;12.13;;
68140;SDS011;54941;52.220;104.306;2022-12-10T12:56:21;32.28;;;14.32;;
68140;SDS011;54941;52.220;104.306;2022-12-10T12:58:58;35.85;;;14.73;;
68140;SDS011;54941;52.220;104.306;2022-12-10T13:01:35;31.67;;;13.00;;
68140;SDS011;54941;52.220;104.306;2022-12-10T13:04:04;30.77;;;12.63;;
68140;SDS011;54941;52.220;104.306;2022-12-10T13:06:32;29.98;;;12.55;;
68140;SDS011;54941;52.220;104.306;2022-12-10T13:09:15;30.80;;;10.88;;
68140;SDS011;54941;52.220;104.306;2022-12-10T13:14:56;33.13;;;13.50;;
68140;SDS011;54941;52.220;104.306;2022-12-10T13:17:31;28.00;;;12.18;;
68140;SDS011;54941;52.220;104.306;2022-12-10T13:22:58;33.28;;;14.15;;
68140;SDS011;54941;52.220;104.306;2022-12-10T13:25:37;33.28;;;12.73;;
68140;SDS011;54941;52.220;104.306;2022-12-10T13:28:16;34.17;;;11.90;;
68140;SDS011;54941;52.220;104.306;2022-12-10T13:31:18;34.15;;;13.38;;
68140;SDS011;54941;52.220;104.306;2022-12-10T13:33:48;39.33;;;16.40;;
68140;SDS011;54941;52.220;104.306;2022-12-10T13:36:20;27.88;;;10.80;;
68140;SDS011;54941;52.220;104.306;2022-12-10T13:38:57;31.88;;;12.18;;
68140;SDS011;54941;52.220;104.306;2022-12-10T13:41:39;27.17;;;10.65;;
68140;SDS011;54941;52.220;104.306;2022-12-10T13:47:00;23.02;;;8.38;;
68140;SDS011;54941;52.220;104.306;2022-12-10T13:49:47;20.52;;;8.95;;
68140;SDS011;54941;52.220;104.306;2022-12-10T13:52:19;21.48;;;7.57;;
68140;SDS011;54941;52.220;104.306;2022-12-10T14:00:19;18.80;;;7.53;;
68140;SDS011;54941;52.220;104.306;2022-12-10T14:02:54;24.88;;;8.65;;
68140;SDS011;54941;52.220;104.306;2022-12-10T14:05:47;18.30;;;6.72;;
68140;SDS011;54941;52.220;104.306;2022-12-10T14:08:24;18.27;;;7.43;;
68140;SDS011;54941;52.220;104.306;2022-12-10T14:13:21;26.33;;;9.43;;
68140;SDS011;54941;52.220;104.306;2022-12-10T14:15:56;20.95;;;8.15;;
68140;SDS011;54941;52.220;104.306;2022-12-10T14:18:27;15.45;;;7.72;;
68140;SDS011;54941;52.220;104.306;2022-12-10T14:20:55;15.93;;;6.90;;
68140;SDS011;54941;52.220;104.306;2022-12-10T14:23:23;15.00;;;5.88;;
68140;SDS011;54941;52.220;104.306;2022-12-10T14:25:51;13.68;;;6.28;;
68140;SDS011;54941;52.220;104.306;2022-12-10T14:28:18;10.07;;;4.80;;
68140;SDS011;54941;52.220;104.306;2022-12-10T14:30:45;11.70;;;5.07;;
68140;SDS011;54941;52.220;104.306;2022-12-10T14:33:15;11.57;;;5.82;;
68140;SDS011;54941;52.220;104.306;2022-12-10T14:38:16;18.33;;;7.88;;
68140;SDS011;54941;52.220;104.306;2022-12-10T14:40:44;22.08;;;8.07;;
68140;SDS011;54941;52.220;104.306;2022-12-10T14:43:12;20.38;;;7.05;;